• Join FlightAware (Why Join?)
  • Login
  • US Flag 
08:55PM EST


 

Airport Tracker/Info


-or-


 

Live Flight TrackerFlight Track Log ✈ AAL2360 ✈ 17-Apr-2013 ✈ KDFW - KORD

Flight Track Log - Related Links

Times and Time Zones

All times are in EDT time to prevent confusion due to time zone crossing. See the AAL2360 flight status page for this flight to view local times or setup timezone preferences in your user account.

Time Position Orientation Groundspeed Altitude Reporting Facility
EDT Latitude Longitude Course Direction KTS MPH feet Rate Location/Type
08:12PM 32.8833 -97.0500 331° Northwest 164 189 1,700  Level Dallas / Fort Worth TRACON
08:13PM 32.8333 -97.0667 196° South 200 230 3,700 1,920 Climbing Dallas / Fort Worth TRACON
08:14PM 32.8793 -96.8000 North  Level FlightAware Approximate
08:14PM 32.7667 -97.1000 203° Southwest 246 283 5,800  Level Dallas / Fort Worth TRACON
08:15PM 33.0048 -96.8129 333° Northwest  Level FlightAware Approximate
08:15PM 32.7833 -97.2000 281° West 281 323 8,800  Level Dallas / Fort Worth TRACON
08:15PM 32.7956 -97.2528 285° West 283 326 9,600 1,080 Climbing Fort Worth Center
08:16PM 33.1181 -96.8842 331° Northwest  Level FlightAware Approximate
08:16PM 32.8689 -97.2772 344° North 269 310 10,700  Level Fort Worth Center
08:17PM 33.2299 -96.9588 331° Northwest  Level FlightAware Approximate
08:17PM 32.9794 -97.2625 North 312 359 11,700  Level Fort Worth Center
08:18PM 33.0794 -97.2275 16° North 391 450 13,600 2,280 Climbing Fort Worth Center
08:19PM 33.2089 -97.1850 15° North 423 487 16,300 2,460 Climbing Fort Worth Center
08:20PM 33.3300 -97.1500 14° North 439 505 18,600 1,980 Climbing Fort Worth Center
08:21PM 33.4489 -97.1097 16° North 444 511 20,300 1,860 Climbing Fort Worth Center
08:22PM 33.5614 -97.0944 North 438 504 22,400 1,680 Climbing Fort Worth Center
08:23PM 33.6886 -97.0814 North 453 521 23,700 1,560 Climbing Fort Worth Center
08:24PM 33.8244 -97.0608 North 458 527 25,500 1,620 Climbing Fort Worth Center
08:25PM 33.9517 -97.0453 North 458 527 27,000 1,260 Climbing Fort Worth Center
08:26PM 34.0808 -97.0272 North 465 535 28,100 1,260 Climbing Fort Worth Center
08:27PM 34.2039 -96.9992 11° North 445 512 29,600 1,260 Climbing Fort Worth Center
08:28PM 34.3289 -96.9383 22° Northeast 459 528 30,700 840 Climbing Fort Worth Center
08:29PM 34.4539 -96.8794 21° North 465 535 31,300 720 Climbing Fort Worth Center
08:30PM 34.5767 -96.8133 24° Northeast 470 541 32,200 720 Climbing Fort Worth Center
08:31PM 34.6953 -96.7544 22° Northeast 470 541 32,800 300 Climbing Fort Worth Center
08:32PM 34.8117 -96.6903 24° Northeast 465 535 32,900 60 Climbing Fort Worth Center
08:33PM 34.9344 -96.6361 20° North 465 535 33,000  Climbing Fort Worth Center
08:34PM 35.0531 -96.5817 21° North 460 529 33,000  Level Fort Worth Center
08:35PM 35.1717 -96.5222 22° Northeast 455 524 33,000  Level Fort Worth Center
08:37PM 35.3833 -96.4192 22° Northeast 461 531 33,000  Level Kansas City Center
08:38PM 35.5058 -96.3819 14° North 456 525 33,000 -60 Level Kansas City Center
08:39PM 35.6289 -96.3503 12° North 455 524 32,900 -360 Descending Kansas City Center
08:40PM 35.7544 -96.3153 13° North 460 529 32,300 -480 Descending Kansas City Center
08:41PM 35.8753 -96.2906 North 462 532 32,000 -180 Descending Kansas City Center
08:42PM 36.0017 -96.2603 11° North 461 531 32,000  Level Kansas City Center
08:43PM 36.1536 -96.2183 13° North 463 533 32,000 -60 Level Kansas City Center
08:44PM 36.2839 -96.1814 13° North 471 542 31,900  Descending Kansas City Center
08:45PM 36.4164 -96.1531 10° North 477 549 32,000  Climbing Kansas City Center
08:46PM 36.5478 -96.1483 North 472 543 32,000  Level Kansas City Center
08:47PM 36.6831 -96.1533 358° North 476 548 32,000  Level Kansas City Center
08:48PM 36.8167 -96.1678 355° North 477 549 32,100  Climbing Kansas City Center
08:49PM 36.9319 -96.2386 334° Northwest 465 535 32,000 -60 Descending Kansas City Center
08:50PM 37.0419 -96.3147 331° Northwest 453 521 32,000  Level Kansas City Center
08:51PM 37.1489 -96.3861 332° Northwest 440 506 32,000  Level Kansas City Center
08:52PM 37.2492 -96.4569 331° Northwest 440 506 32,000  Level Kansas City Center
08:53PM 37.3783 -96.5436 332° Northwest 439 505 32,000  Level Kansas City Center
08:55PM 37.4847 -96.6167 331° Northwest 437 503 32,000  Level Kansas City Center
08:56PM 37.5914 -96.6897 332° Northwest 438 504 32,000  Level Kansas City Center
08:57PM 37.7028 -96.7636 332° Northwest 451 519 32,000  Level Kansas City Center
08:58PM 37.8142 -96.8406 331° Northwest 457 526 32,000  Level Kansas City Center
08:59PM 37.9292 -96.9192 332° Northwest 470 541 32,000  Level Kansas City Center
09:00PM 38.0447 -96.9994 331° Northwest 476 548 32,000  Level Kansas City Center
09:01PM 38.1589 -97.0794 331° Northwest 472 543 32,000  Level Kansas City Center
09:02PM 38.2969 -97.1761 331° Northwest 474 545 32,000  Level Kansas City Center
09:03PM 38.4117 -97.2558 331° Northwest 474 545 32,000  Level Kansas City Center
09:04PM 38.5261 -97.3367 331° Northwest 473 544 32,000  Level Kansas City Center
09:05PM 38.6608 -97.3603 352° North 502 578 32,000  Level Kansas City Center
09:06PM 38.8003 -97.3436 North 505 581 32,000  Level Kansas City Center
09:07PM 38.9400 -97.3278 North 505 581 32,000  Level Kansas City Center
09:08PM 39.1028 -97.3103 North 508 585 32,000  Level Kansas City Center
09:09PM 39.2381 -97.2961 North 508 585 32,000  Level Kansas City Center
09:10PM 39.3972 -97.2786 North 511 588 32,000  Level Kansas City Center
09:11PM 39.5244 -97.2647 North 509 586 32,000  Level Kansas City Center
09:12PM 39.6633 -97.2894 352° North 501 577 32,000  Level Kansas City Center
09:13PM 39.7758 -97.3103 352° North 510 587 32,000  Level Minneapolis Center
09:14PM 39.9194 -97.3272 355° North 516 594 32,000  Level Minneapolis Center
09:15PM 40.0614 -97.3450 355° North 513 590 32,000  Level Minneapolis Center
09:16PM 40.2322 -97.3708 353° North 515 593 32,000  Level Minneapolis Center
09:17PM 40.3753 -97.3836 356° North 515 593 32,000  Level Minneapolis Center
09:18PM 40.5181 -97.3983 356° North 515 593 32,000  Level Minneapolis Center
09:19PM 40.6611 -97.4094 357° North 516 594 32,000  Level Minneapolis Center
09:20PM 40.8044 -97.3725 11° North 523 602 32,000  Level Minneapolis Center
09:21PM 40.9608 -97.3403 North 520 598 32,000  Level Minneapolis Center
09:22PM 41.1069 -97.3108 North 524 603 32,000  Level Minneapolis Center
09:23PM 41.2522 -97.2814 North 526 605 32,000  Level Minneapolis Center
09:24PM 41.3975 -97.2519 North 525 604 32,000  Level Minneapolis Center
09:25PM 41.5433 -97.2217 North 527 606 32,000  Level Minneapolis Center
09:26PM 41.6889 -97.1925 North 526 605 32,000  Level Minneapolis Center
09:27PM 41.8642 -97.1564 North 528 608 32,000  Level Minneapolis Center
09:28PM 42.0039 -97.1044 15° North 526 605 32,000  Level Minneapolis Center
09:29PM 42.0994 -96.9664 47° Northeast 508 585 32,000 180 Level Minneapolis Center
09:30PM 42.1469 -96.7944 70° East 489 563 32,400 420 Climbing Minneapolis Center
09:31PM 42.1936 -96.6269 69° East 481 554 32,900 240 Climbing Minneapolis Center
09:32PM 42.2431 -96.4606 68° East 477 549 33,000  Climbing Minneapolis Center
09:33PM 42.2925 -96.2914 68° East 480 552 32,900  Descending Minneapolis Center
09:34PM 42.3425 -96.1192 69° East 486 559 33,000  Climbing Minneapolis Center
09:35PM 42.3914 -95.9469 69° East 488 562 33,000  Level Minneapolis Center
09:36PM 42.4489 -95.7428 69° East 484 557 33,100  Climbing Minneapolis Center
09:37PM 42.4958 -95.5692 70° East 487 560 33,000 -60 Descending Minneapolis Center
09:38PM 42.5428 -95.3986 69° East 485 558 33,000  Level Minneapolis Center
09:39PM 42.5906 -95.2336 68° East 477 549 33,000 -60 Level Minneapolis Center
09:40PM 42.6364 -95.0661 70° East 474 545 32,900 -60 Descending Minneapolis Center
09:42PM 42.6831 -94.8964 69° East 477 549 32,900  Level Minneapolis Center
09:43PM 42.7294 -94.7256 70° East 479 551 33,000  Climbing Minneapolis Center
09:44PM 42.7814 -94.5233 71° East 486 559 33,000  Level Minneapolis Center
09:45PM 42.8272 -94.3500 70° East 490 564 33,000  Level Minneapolis Center
09:46PM 42.8728 -94.1789 70° East 486 559 33,000  Level Minneapolis Center
09:47PM 42.9194 -94.0058 70° East 489 563 33,000  Level Minneapolis Center
09:48PM 42.9733 -93.7975 70° East 488 562 33,100  Climbing Minneapolis Center
09:49PM 43.0178 -93.6239 71° East 487 560 33,000 -60 Descending Minneapolis Center
09:50PM 43.0706 -93.4167 71° East 486 559 33,000 -60 Level Minneapolis Center
09:51PM 43.0892 -93.2436 82° East 471 542 32,900 -60 Descending Minneapolis Center
09:52PM 43.0769 -93.0722 96° East 456 525 32,900  Level Minneapolis Center
09:53PM 43.0656 -92.9019 95° East 454 522 33,000 60 Climbing Minneapolis Center
09:54PM 43.0536 -92.7269 95° East 461 531 33,100  Climbing Minneapolis Center
09:55PM 43.0408 -92.5506 96° East 468 539 33,100  Level Minneapolis Center
09:56PM 43.0278 -92.3742 96° East 469 540 33,100 -360 Level Minneapolis Center
09:57PM 43.0119 -92.1625 96° East 471 542 32,400 -840 Descending Minneapolis Center
09:58PM 43.0000 -91.9864 95° East 469 540 31,400 -720 Descending Minneapolis Center
09:59PM 42.9864 -91.8072 96° East 471 542 31,000 -240 Descending Minneapolis Center
10:00PM 42.9731 -91.6292 96° East 469 540 31,000 -60 Level Minneapolis Center
10:01PM 42.9578 -91.4489 97° East 471 542 30,900  Descending Minneapolis Center
10:02PM 42.9414 -91.2683 97° East 475 547 31,000  Climbing Minneapolis Center
10:03PM 42.9269 -91.0850 96° East 484 557 31,000 -60 Level Minneapolis Center
10:04PM 42.9111 -90.9039 97° East 484 557 30,900 -420 Descending Minneapolis Center
10:05PM 42.9028 -90.7942 96° East 488 562 30,400 -1,380 Descending Chicago Center
10:06PM 42.8867 -90.6125 97° East 485 558 28,900 -1,680 Descending Chicago Center
10:07PM 42.8706 -90.4347 97° East 477 549 27,100 -1,800 Descending Chicago Center
10:08PM 42.8547 -90.2628 97° East 462 532 25,300 -1,440 Descending Chicago Center
10:09PM 42.8381 -90.0953 98° East 451 519 24,200 -960 Descending Chicago Center
10:10PM 42.7897 -89.9136 110° East 451 519 23,400 -1,380 Descending Chicago Center
10:11PM 42.7433 -89.7603 112° Southeast 444 511 21,500 -1,860 Descending Chicago Center
10:12PM 42.7044 -89.6175 110° East 413 475 19,700 -1,800 Descending Chicago Center
10:13PM 42.6633 -89.4772 112° Southeast 404 465 17,900 -1,800 Descending Chicago Center
10:14PM 42.6233 -89.3392 111° Southeast 396 456 16,100 -1,620 Descending Chicago Center
10:15PM 42.5853 -89.2050 111° Southeast 385 443 14,700 -1,080 Descending Chicago Center
10:16PM 42.5486 -89.0792 112° Southeast 364 419 14,000 -600 Descending Chicago Center
10:17PM 42.5125 -88.9589 112° Southeast 348 400 13,500 -840 Descending Chicago Center
10:18PM 42.4794 -88.8475 112° Southeast 326 375 12,400 -1,260 Descending Chicago Center
10:19PM 42.4386 -88.7125 112° Southeast 330 380 11,000 -1,260 Descending Chicago Center
10:20PM 42.4053 -88.6036 112° Southeast 319 367 9,900 -960 Descending Chicago Center
10:21PM 42.3703 -88.4931 113° Southeast 320 368 9,100 -900 Descending Chicago Center
10:22PM 42.3378 -88.3825 112° Southeast 317 365 8,100 -1,200 Descending Chicago Center
10:23PM 42.2817 -88.2950 131° Southeast 295 339 6,700 -1,320 Descending Chicago Center
10:24PM 42.2325 -88.2103 128° Southeast 290 334 5,500 -840 Descending Chicago Center
10:25PM 42.1794 -88.1456 138° Southeast 270 311 5,100 -420 Descending Chicago Center